Lindon, UT (84042)

10:01 PM MST on January 17, 2017 (GMT -0700)
Lindon Ladybugville | | Change Station

Elev 4715 ft 40.34 °N, 111.72 °W | Updated 8 seconds ago

Partly Cloudy
Partly Cloudy
19.8 °F
Feels Like 20 °F
N
1.0
Wind Variable Wind from ESE

Today
High -- | Low -- °F
--% Chance of Precip.
Yesterday
High -- | Low -- °F
Precip. -- in
Pressure 30.38 in
Visibility 6.0 miles
Clouds Clear
Windchill 20 °F
Dew Point 14 °F
Humidity 79%
Rainfall 0.00 in
Snow Depth Not available.
7:46 AM 5:27 PM
Waning Gibbous, 66% visible
METAR KPVU 180456Z 13004KT 6SM BR CLR M06/M08 A3026 RMK AO2 SLP286 T10611078 FZRANO
Pressure 30.38 in
Visibility 6.0 miles
Clouds Clear
Windchill 20 °F
Dew Point 14 °F
Humidity 79%
Rainfall 0.00 in
Snow Depth Not available.
7:46 AM 5:27 PM
Waning Gibbous, 66% visible
METAR KPVU 180456Z 13004KT 6SM BR CLR M06/M08 A3026 RMK AO2 SLP286 T10611078 FZRANO

Get Your Daily Forecast Email!

Thanks for signing up!

Be on the lookout for a verification email in your inbox.

You'll start receiving the daily forecast at 8 AM.

×

10-Day Weather Forecast

Almanac

Astronomy

Jan. 17, 2017 Rise Set
Actual Time
Civil Twilight
Nautical Twilight
Astronomical Twilight
Moon
Length of Visible Light
Length of Day
Tomorrow will be .
, % of the Moon is Illuminated

Today's Extremes

State Highs State Lows

Community

WunderPhotos

Upload Photos

1,962,540 photos uploaded!

WunderBlog® & News

Nearby

Air Quality

  Air Quality AQ Index Pollutant
Not available.

Snow Depth

Station Depth Elevation

Earthquake Activity

City Distance Mag. Time & Date
Minimum magnitude displayed is 2.5.

Coastal Water Temperatures

Place Temperature

Stations

Nearby Weather Stations

Station Location Temp. Windchill Dew Point Humidity Wind Precip. Elev Updated Type
                   

Watches & Warnings

There are currently no watches in effect.